sensor_id;sensor_type;location;lat;lon;timestamp;P1;P2;P0
77320;PMS7003;66382;52.252;8.780;2024-01-11T15:12:55;65.67;54.33;35.33
77320;PMS7003;66382;52.252;8.780;2024-01-11T15:15:20;66.67;56.67;38.67
77320;PMS7003;66382;52.252;8.780;2024-01-11T15:17:46;68.00;58.00;37.00
77320;PMS7003;66382;52.252;8.780;2024-01-11T15:20:12;75.33;59.00;37.33
77320;PMS7003;66382;52.252;8.780;2024-01-11T15:22:37;65.00;55.33;35.33
77320;PMS7003;66382;52.252;8.780;2024-01-11T15:25:03;68.00;56.00;37.33
77320;PMS7003;66382;52.252;8.780;2024-01-11T15:27:28;63.67;54.33;36.00
77320;PMS7003;66382;52.252;8.780;2024-01-11T15:29:55;63.00;53.67;34.00
77320;PMS7003;66382;52.252;8.780;2024-01-11T15:32:21;62.67;53.00;35.00
77320;PMS7003;66382;52.252;8.780;2024-01-11T15:34:46;61.33;52.00;33.33
77320;PMS7003;66382;52.252;8.780;2024-01-11T15:37:11;63.67;51.00;33.33
77320;PMS7003;66382;52.252;8.780;2024-01-11T15:39:37;64.00;53.67;36.00
77320;PMS7003;66382;52.252;8.780;2024-01-11T18:55:30;69.00;55.67;35.67
77320;PMS7003;66382;52.252;8.780;2024-01-11T18:57:56;71.33;59.00;38.00
77320;PMS7003;66382;52.252;8.780;2024-01-11T19:00:22;67.33;55.00;33.67
77320;PMS7003;66382;52.252;8.780;2024-01-11T19:02:47;71.00;59.00;36.67
77320;PMS7003;66382;52.252;8.780;2024-01-11T19:05:12;74.67;61.67;39.33
77320;PMS7003;66382;52.252;8.780;2024-01-11T19:07:38;85.33;69.00;42.33
77320;PMS7003;66382;52.252;8.780;2024-01-11T19:10:04;101.50;96.25;55.25
77320;PMS7003;66382;52.252;8.780;2024-01-11T19:12:31;81.67;66.00;41.00
77320;PMS7003;66382;52.252;8.780;2024-01-11T19:14:56;87.00;72.00;46.33
77320;PMS7003;66382;52.252;8.780;2024-01-11T19:17:22;74.67;60.33;40.00
77320;PMS7003;66382;52.252;8.780;2024-01-11T19:19:47;87.00;71.67;45.00
77320;PMS7003;66382;52.252;8.780;2024-01-11T19:22:12;79.00;64.00;41.33
77320;PMS7003;66382;52.252;8.780;2024-01-11T19:24:38;72.67;59.67;39.00
77320;PMS7003;66382;52.252;8.780;2024-01-11T19:27:03;71.67;57.33;36.33
77320;PMS7003;66382;52.252;8.780;2024-01-11T19:29:31;69.33;57.33;37.33
77320;PMS7003;66382;52.252;8.780;2024-01-11T19:31:57;71.00;59.67;39.00
77320;PMS7003;66382;52.252;8.780;2024-01-11T19:34:22;69.00;58.00;38.33
77320;PMS7003;66382;52.252;8.780;2024-01-11T19:36:48;66.33;56.33;34.33
77320;PMS7003;66382;52.252;8.780;2024-01-11T19:39:13;67.00;56.33;37.00
77320;PMS7003;66382;52.252;8.780;2024-01-11T19:41:39;62.67;53.00;35.00
77320;PMS7003;66382;52.252;8.780;2024-01-11T19:44:04;67.33;55.00;35.33
77320;PMS7003;66382;52.252;8.780;2024-01-11T19:46:31;67.33;55.67;35.33
77320;PMS7003;66382;52.252;8.780;2024-01-11T19:48:57;70.33;58.00;36.67
77320;PMS7003;66382;52.252;8.780;2024-01-11T19:51:22;73.00;60.33;39.00
77320;PMS7003;66382;52.252;8.780;2024-01-11T19:53:48;68.67;56.33;36.67
77320;PMS7003;66382;52.252;8.780;2024-01-11T19:56:16;69.00;57.33;35.00
77320;PMS7003;66382;52.252;8.780;2024-01-11T19:58:43;69.67;58.00;37.33
77320;PMS7003;66382;52.252;8.780;2024-01-11T20:01:09;62.33;54.00;32.33
77320;PMS7003;66382;52.252;8.780;2024-01-11T20:03:35;66.00;55.33;38.33
77320;PMS7003;66382;52.252;8.780;2024-01-11T20:06:04;70.33;58.67;37.00
77320;PMS7003;66382;52.252;8.780;2024-01-11T20:08:30;72.00;59.00;39.33
77320;PMS7003;66382;52.252;8.780;2024-01-11T20:10:55;79.33;63.33;41.33
77320;PMS7003;66382;52.252;8.780;2024-01-11T20:13:21;82.67;64.67;42.00
77320;PMS7003;66382;52.252;8.780;2024-01-11T20:15:47;76.00;61.00;40.67
77320;PMS7003;66382;52.252;8.780;2024-01-11T20:18:12;72.00;58.33;40.00
77320;PMS7003;66382;52.252;8.780;2024-01-11T20:20:39;68.67;56.00;36.33
77320;PMS7003;66382;52.252;8.780;2024-01-11T20:23:04;70.33;57.33;37.00
77320;PMS7003;66382;52.252;8.780;2024-01-11T20:25:30;70.67;59.00;38.00
77320;PMS7003;66382;52.252;8.780;2024-01-11T20:27:55;85.00;68.00;42.33
77320;PMS7003;66382;52.252;8.780;2024-01-11T20:30:21;76.00;62.00;39.33
77320;PMS7003;66382;52.252;8.780;2024-01-11T20:32:46;77.00;62.33;39.67
77320;PMS7003;66382;52.252;8.780;2024-01-11T20:35:12;69.00;58.33;39.00
77320;PMS7003;66382;52.252;8.780;2024-01-11T20:37:39;73.33;59.33;38.67
77320;PMS7003;66382;52.252;8.780;2024-01-11T20:40:05;74.67;58.67;38.33
77320;PMS7003;66382;52.252;8.780;2024-01-11T20:42:31;71.33;57.67;39.00
77320;PMS7003;66382;52.252;8.780;2024-01-11T20:44:57;74.67;61.00;38.67
77320;PMS7003;66382;52.252;8.780;2024-01-11T20:47:22;77.67;61.67;39.00
77320;PMS7003;66382;52.252;8.780;2024-01-11T20:49:48;72.33;59.00;39.00
77320;PMS7003;66382;52.252;8.780;2024-01-11T20:52:13;76.00;62.00;39.00
77320;PMS7003;66382;52.252;8.780;2024-01-11T20:54:40;74.33;61.00;38.33
77320;PMS7003;66382;52.252;8.780;2024-01-11T20:57:05;73.00;60.00;37.67
77320;PMS7003;66382;52.252;8.780;2024-01-11T20:59:31;76.33;62.67;42.00
77320;PMS7003;66382;52.252;8.780;2024-01-11T21:01:56;75.67;61.67;40.67
77320;PMS7003;66382;52.252;8.780;2024-01-11T21:04:21;76.33;61.00;38.33
77320;PMS7003;66382;52.252;8.780;2024-01-11T21:06:47;77.00;63.33;40.00
77320;PMS7003;66382;52.252;8.780;2024-01-11T21:09:12;71.67;60.00;37.67
77320;PMS7003;66382;52.252;8.780;2024-01-11T21:11:39;71.67;59.67;39.33
77320;PMS7003;66382;52.252;8.780;2024-01-11T21:14:04;71.00;60.00;38.67
77320;PMS7003;66382;52.252;8.780;2024-01-11T21:16:30;58.67;49.00;35.00
77320;PMS7003;66382;52.252;8.780;2024-01-11T21:18:55;73.00;60.33;40.67
77320;PMS7003;66382;52.252;8.780;2024-01-11T21:21:21;79.00;62.00;40.67
77320;PMS7003;66382;52.252;8.780;2024-01-11T21:23:46;79.00;64.00;41.00
77320;PMS7003;66382;52.252;8.780;2024-01-11T21:26:12;76.67;62.67;40.33
77320;PMS7003;66382;52.252;8.780;2024-01-11T21:28:38;76.33;62.67;40.67
77320;PMS7003;66382;52.252;8.780;2024-01-11T21:31:04;80.67;65.00;41.00
77320;PMS7003;66382;52.252;8.780;2024-01-11T21:33:29;73.67;61.33;38.00
77320;PMS7003;66382;52.252;8.780;2024-01-11T21:35:55;72.00;60.00;40.00
77320;PMS7003;66382;52.252;8.780;2024-01-11T21:38:20;67.00;56.33;35.33
77320;PMS7003;66382;52.252;8.780;2024-01-11T21:40:46;66.33;56.00;36.00
77320;PMS7003;66382;52.252;8.780;2024-01-11T21:43:11;70.33;59.00;37.33
77320;PMS7003;66382;52.252;8.780;2024-01-11T21:45:38;72.00;58.67;37.00
77320;PMS7003;66382;52.252;8.780;2024-01-11T21:48:04;67.33;56.67;36.33
77320;PMS7003;66382;52.252;8.780;2024-01-11T21:50:29;71.33;60.00;38.33
77320;PMS7003;66382;52.252;8.780;2024-01-11T21:52:55;72.33;60.00;38.00
77320;PMS7003;66382;52.252;8.780;2024-01-11T21:55:20;71.67;57.67;38.33
77320;PMS7003;66382;52.252;8.780;2024-01-11T21:57:45;72.00;59.00;38.33
77320;PMS7003;66382;52.252;8.780;2024-01-11T22:00:11;70.67;59.00;38.00
77320;PMS7003;66382;52.252;8.780;2024-01-11T22:02:39;68.67;57.33;37.00
77320;PMS7003;66382;52.252;8.780;2024-01-11T22:05:04;77.33;62.00;39.67
77320;PMS7003;66382;52.252;8.780;2024-01-11T22:07:30;81.67;65.67;42.33
77320;PMS7003;66382;52.252;8.780;2024-01-11T22:09:55;78.00;63.67;40.00
77320;PMS7003;66382;52.252;8.780;2024-01-11T22:12:21;88.33;74.00;46.00
77320;PMS7003;66382;52.252;8.780;2024-01-11T22:14:46;96.00;86.67;51.00
77320;PMS7003;66382;52.252;8.780;2024-01-11T22:17:12;83.00;67.33;42.00
77320;PMS7003;66382;52.252;8.780;2024-01-11T22:19:38;77.00;62.67;40.33
77320;PMS7003;66382;52.252;8.780;2024-01-11T22:22:04;72.67;60.33;38.33
77320;PMS7003;66382;52.252;8.780;2024-01-11T22:24:29;65.00;55.00;35.33
77320;PMS7003;66382;52.252;8.780;2024-01-11T22:26:55;68.67;57.33;37.67
77320;PMS7003;66382;52.252;8.780;2024-01-11T22:29:20;73.00;60.00;40.00
77320;PMS7003;66382;52.252;8.780;2024-01-11T22:31:46;64.67;54.67;35.00
77320;PMS7003;66382;52.252;8.780;2024-01-11T22:34:11;74.67;59.00;37.00
77320;PMS7003;66382;52.252;8.780;2024-01-11T22:36:38;64.67;54.67;36.00
77320;PMS7003;66382;52.252;8.780;2024-01-11T22:39:03;62.33;53.00;36.67
77320;PMS7003;66382;52.252;8.780;2024-01-11T22:41:36;66.00;54.33;34.33
77320;PMS7003;66382;52.252;8.780;2024-01-11T22:44:02;66.00;54.00;34.33
77320;PMS7003;66382;52.252;8.780;2024-01-11T22:46:28;62.67;53.67;34.33
77320;PMS7003;66382;52.252;8.780;2024-01-11T22:48:53;60.00;52.00;34.33
77320;PMS7003;66382;52.252;8.780;2024-01-11T22:51:19;61.67;53.00;34.00
77320;PMS7003;66382;52.252;8.780;2024-01-11T22:53:45;68.67;57.00;35.33
77320;PMS7003;66382;52.252;8.780;2024-01-11T22:56:11;65.00;54.33;36.00
77320;PMS7003;66382;52.252;8.780;2024-01-11T22:58:36;71.67;59.67;38.67
77320;PMS7003;66382;52.252;8.780;2024-01-11T23:01:02;70.67;58.67;37.67
77320;PMS7003;66382;52.252;8.780;2024-01-11T23:03:27;74.33;61.00;37.00
77320;PMS7003;66382;52.252;8.780;2024-01-11T23:05:53;75.67;61.67;39.67
77320;PMS7003;66382;52.252;8.780;2024-01-11T23:08:18;69.00;57.67;37.00
77320;PMS7003;66382;52.252;8.780;2024-01-11T23:10:45;66.00;55.33;36.00
77320;PMS7003;66382;52.252;8.780;2024-01-11T23:13:10;67.33;55.33;37.00
77320;PMS7003;66382;52.252;8.780;2024-01-11T23:15:36;67.33;55.00;34.00
77320;PMS7003;66382;52.252;8.780;2024-01-11T23:18:01;66.67;56.33;34.33
77320;PMS7003;66382;52.252;8.780;2024-01-11T23:20:27;65.00;54.67;35.33
77320;PMS7003;66382;52.252;8.780;2024-01-11T23:22:52;66.00;54.33;34.33
77320;PMS7003;66382;52.252;8.780;2024-01-11T23:25:18;60.33;51.67;35.33
77320;PMS7003;66382;52.252;8.780;2024-01-11T23:27:45;62.00;52.67;34.00
77320;PMS7003;66382;52.252;8.780;2024-01-11T23:30:10;64.67;54.00;34.67
77320;PMS7003;66382;52.252;8.780;2024-01-11T23:32:36;63.00;53.33;33.00
77320;PMS7003;66382;52.252;8.780;2024-01-11T23:35:02;64.00;54.33;35.00
77320;PMS7003;66382;52.252;8.780;2024-01-11T23:37:27;54.00;46.00;33.67
77320;PMS7003;66382;52.252;8.780;2024-01-11T23:39:53;62.67;53.33;32.00
77320;PMS7003;66382;52.252;8.780;2024-01-11T23:42:18;53.33;47.00;31.67
77320;PMS7003;66382;52.252;8.780;2024-01-11T23:44:45;58.33;49.33;31.67
77320;PMS7003;66382;52.252;8.780;2024-01-11T23:47:11;63.00;54.00;33.33
77320;PMS7003;66382;52.252;8.780;2024-01-11T23:49:37;58.67;49.67;34.00
77320;PMS7003;66382;52.252;8.780;2024-01-11T23:52:02;59.67;49.67;33.33
77320;PMS7003;66382;52.252;8.780;2024-01-11T23:54:28;58.25;49.50;32.50
77320;PMS7003;66382;52.252;8.780;2024-01-11T23:56:54;62.33;51.33;33.33
77320;PMS7003;66382;52.252;8.780;2024-01-11T23:59:19;61.00;52.67;33.33
